createdAt,value
2019-04-26T00:00:45.641Z,45.74
2019-04-26T00:01:45.657Z,45.84
2019-04-26T00:02:45.624Z,45.84
2019-04-26T00:03:45.634Z,45.84
2019-04-26T00:04:45.601Z,45.74
2019-04-26T00:05:45.588Z,45.74
2019-04-26T00:06:45.564Z,46.25
2019-04-26T00:07:45.580Z,45.74
2019-04-26T00:08:45.541Z,46.04
2019-04-26T00:09:45.530Z,45.54
2019-04-26T00:10:45.539Z,45.44
2019-04-26T00:11:45.520Z,45.94
2019-04-26T00:12:45.529Z,46.14
2019-04-26T00:13:45.508Z,45.97
2019-04-26T00:14:45.489Z,47.17
2019-04-26T00:15:45.478Z,46.65
2019-04-26T00:16:45.468Z,46.67
2019-04-26T00:17:45.948Z,46.17
2019-04-26T00:18:45.438Z,47.67
2019-04-26T00:19:45.444Z,47.58
2019-04-26T00:20:45.415Z,46.77
2019-04-26T00:21:45.420Z,47.67
2019-04-26T00:22:45.408Z,46.37
2019-04-26T00:23:45.398Z,47.38
2019-04-26T00:24:45.371Z,47.38
2019-04-26T00:25:45.366Z,47.78
2019-04-26T00:26:45.351Z,47.98
2019-04-26T00:27:45.335Z,48.28
2019-04-26T00:28:45.353Z,47.88
2019-04-26T00:29:45.318Z,47.88
2019-04-26T00:30:45.313Z,47.47
2019-04-26T00:31:45.291Z,48.00
2019-04-26T00:32:45.282Z,47.80
2019-04-26T00:33:45.298Z,47.98
2019-04-26T00:34:45.269Z,47.98
2019-04-26T00:35:47.795Z,48.00
2019-04-26T00:36:45.253Z,47.78
2019-04-26T00:37:45.234Z,47.80
2019-04-26T00:38:45.214Z,47.60
2019-04-26T00:39:45.225Z,48.41
2019-04-26T00:40:45.197Z,48.50
2019-04-26T00:41:45.185Z,48.69
2019-04-26T00:42:45.176Z,48.91
2019-04-26T00:43:45.173Z,48.79
2019-04-26T00:44:45.161Z,48.50
2019-04-26T00:45:45.143Z,48.61
2019-04-26T00:46:45.141Z,48.41
2019-04-26T00:47:45.121Z,48.38
2019-04-26T00:48:45.105Z,48.79
2019-04-26T00:49:45.187Z,49.82
2019-04-26T00:50:45.083Z,49.72
2019-04-26T00:51:45.080Z,49.62
2019-04-26T00:52:45.135Z,49.31
2019-04-26T00:53:45.050Z,48.91
2019-04-26T00:54:45.051Z,48.91
2019-04-26T00:55:45.076Z,48.91
2019-04-26T00:56:45.025Z,49.52
2019-04-26T00:57:45.012Z,49.31
2019-04-26T00:58:44.993Z,49.62
2019-04-26T00:59:44.984Z,49.11
2019-04-26T01:00:45.029Z,49.54
2019-04-26T01:01:44.969Z,50.45
2019-04-26T01:02:44.950Z,49.94
2019-04-26T01:03:44.944Z,49.74
2019-04-26T01:04:44.920Z,49.62
2019-04-26T01:05:44.916Z,49.92
2019-04-26T01:06:44.933Z,49.84
2019-04-26T01:07:44.891Z,49.41
2019-04-26T01:08:44.884Z,50.04
2019-04-26T01:09:44.871Z,49.94
2019-04-26T01:10:44.875Z,49.94
2019-04-26T01:11:44.864Z,50.55
2019-04-26T01:12:44.865Z,51.15
2019-04-26T01:13:44.833Z,50.75
2019-04-26T01:14:44.825Z,50.65
2019-04-26T01:15:44.836Z,50.55
2019-04-26T01:16:45.696Z,50.24
2019-04-26T01:17:44.786Z,50.95
2019-04-26T01:18:44.780Z,51.25
2019-04-26T01:19:44.767Z,50.27
2019-04-26T01:20:44.763Z,50.04
2019-04-26T01:21:44.773Z,50.98
2019-04-26T01:22:44.738Z,50.98
2019-04-26T01:23:44.725Z,50.87
2019-04-26T01:24:44.719Z,51.28
2019-04-26T01:25:44.699Z,51.38
2019-04-26T01:26:44.717Z,51.48
2019-04-26T01:27:44.677Z,51.48
2019-04-26T01:28:44.665Z,51.15
2019-04-26T01:29:44.718Z,51.89
2019-04-26T01:30:44.634Z,51.58
2019-04-26T01:31:44.651Z,52.19
2019-04-26T01:32:44.617Z,52.29
2019-04-26T01:33:44.627Z,51.48
2019-04-26T01:34:44.656Z,51.78
2019-04-26T01:35:44.597Z,51.89
2019-04-26T01:36:44.606Z,51.58
2019-04-26T01:37:44.579Z,51.89
2019-04-26T01:38:44.568Z,52.29
2019-04-26T01:39:44.553Z,52.61
2019-04-26T01:40:44.594Z,52.31
2019-04-26T01:41:44.557Z,52.31
2019-04-26T01:42:44.504Z,52.61
2019-04-26T01:43:44.502Z,52.89
2019-04-26T01:44:44.484Z,52.82
2019-04-26T01:45:44.475Z,53.22
2019-04-26T01:46:44.474Z,53.02
2019-04-26T01:47:44.488Z,53.02
2019-04-26T01:48:44.440Z,52.92
2019-04-26T01:49:44.461Z,52.82
2019-04-26T01:50:44.432Z,52.72
2019-04-26T01:51:44.416Z,53.63
2019-04-26T01:52:44.438Z,53.45
2019-04-26T01:53:44.412Z,53.42
2019-04-26T01:54:44.378Z,53.52
2019-04-26T01:55:44.376Z,53.42
2019-04-26T01:56:44.377Z,52.94
2019-04-26T01:57:44.348Z,53.55
2019-04-26T01:58:44.377Z,53.05
2019-04-26T01:59:44.338Z,53.96
2019-04-26T02:00:44.322Z,53.65
2019-04-26T02:01:44.307Z,54.36
2019-04-26T02:02:44.291Z,54.16
2019-04-26T02:03:44.308Z,54.16
2019-04-26T02:04:44.270Z,54.25
2019-04-26T02:05:44.272Z,54.86
2019-04-26T02:06:44.252Z,54.76
2019-04-26T02:07:44.235Z,54.36
2019-04-26T02:08:44.243Z,54.66
2019-04-26T02:09:44.219Z,54.76
2019-04-26T02:10:44.207Z,54.66
2019-04-26T02:11:44.211Z,55.67
2019-04-26T02:12:44.186Z,55.40
2019-04-26T02:13:44.195Z,56.10
2019-04-26T02:14:44.184Z,55.98
2019-04-26T02:15:44.160Z,55.57
2019-04-26T02:16:44.132Z,55.60
2019-04-26T02:17:44.116Z,55.36
2019-04-26T02:18:44.119Z,55.49
2019-04-26T02:19:44.102Z,56.00
2019-04-26T02:20:44.095Z,56.20
2019-04-26T02:21:44.109Z,55.87
2019-04-26T02:22:44.072Z,56.10
2019-04-26T02:23:44.083Z,56.51
2019-04-26T02:24:44.047Z,55.90
2019-04-26T02:25:44.033Z,56.61
2019-04-26T02:26:44.036Z,56.71
2019-04-26T02:27:44.007Z,56.91
2019-04-26T02:28:44.033Z,57.01
2019-04-26T02:29:43.992Z,57.01
2019-04-26T02:30:43.982Z,56.91
2019-04-26T02:31:43.990Z,56.94
2019-04-26T02:32:43.957Z,57.34
2019-04-26T02:33:43.950Z,57.11
2019-04-26T02:34:43.946Z,57.92
2019-04-26T02:35:43.928Z,57.82
2019-04-26T02:36:57.159Z,58.02
2019-04-26T02:37:44.900Z,57.65
2019-04-26T02:38:43.885Z,58.36
2019-04-26T02:39:43.901Z,57.85
2019-04-26T02:40:44.057Z,57.75
2019-04-26T02:41:43.856Z,57.85
2019-04-26T02:42:43.845Z,57.75
2019-04-26T02:43:43.836Z,58.65
2019-04-26T02:44:43.914Z,58.65
2019-04-26T02:45:43.813Z,58.45
2019-04-26T02:46:43.860Z,58.05
2019-04-26T02:47:43.808Z,58.76
2019-04-26T02:48:43.788Z,58.86
2019-04-26T02:49:43.776Z,59.70
2019-04-26T02:50:43.789Z,59.06
2019-04-26T02:51:43.766Z,59.29
2019-04-26T02:52:43.731Z,59.06
2019-04-26T02:53:43.727Z,59.36
2019-04-26T02:54:43.706Z,59.56
2019-04-26T02:55:43.727Z,58.76
2019-04-26T02:56:43.706Z,59.56
2019-04-26T02:57:43.688Z,59.87
2019-04-26T02:58:43.668Z,59.39
2019-04-26T02:59:43.672Z,59.77
2019-04-26T03:00:43.675Z,59.67
2019-04-26T03:01:43.633Z,59.97
2019-04-26T03:02:43.676Z,59.97
2019-04-26T03:03:43.618Z,60.17
2019-04-26T03:04:43.606Z,60.17
2019-04-26T03:05:43.593Z,60.30
2019-04-26T03:06:43.605Z,61.29
2019-04-26T03:07:43.568Z,60.71
2019-04-26T03:08:43.549Z,60.50
2019-04-26T03:09:43.543Z,60.81
2019-04-26T03:10:43.702Z,60.81
2019-04-26T03:11:43.534Z,60.61
2019-04-26T03:12:43.534Z,61.41
2019-04-26T03:13:43.818Z,61.35
2019-04-26T03:14:43.496Z,61.21
2019-04-26T03:15:43.483Z,61.21
2019-04-26T03:16:43.494Z,61.32
2019-04-26T03:17:43.465Z,61.62
2019-04-26T03:18:43.466Z,61.32
2019-04-26T03:19:43.443Z,61.24
2019-04-26T03:20:43.424Z,62.15
2019-04-26T03:21:43.447Z,61.65
2019-04-26T03:22:43.426Z,61.44
2019-04-26T03:23:57.019Z,62.15
2019-04-26T03:24:44.377Z,62.35
2019-04-26T03:25:43.389Z,62.26
2019-04-26T03:26:43.474Z,62.15
2019-04-26T03:27:43.581Z,61.95
2019-04-26T03:28:43.824Z,62.26
2019-04-26T03:29:43.795Z,63.17
2019-04-26T03:30:51.351Z,63.07
2019-04-26T03:31:52.447Z,62.76
2019-04-26T03:32:50.818Z,61.75
2019-04-26T03:33:53.115Z,62.05
2019-04-26T03:34:53.036Z,63.17
2019-04-26T03:35:55.963Z,62.86
2019-04-26T03:36:44.483Z,63.17
2019-04-26T03:37:44.538Z,63.47
2019-04-26T03:38:43.551Z,63.67
2019-04-26T03:39:44.488Z,63.57
2019-04-26T03:40:44.581Z,63.57
2019-04-26T03:41:44.443Z,63.57
2019-04-26T03:42:44.141Z,62.96
2019-04-26T03:43:44.533Z,63.67
2019-04-26T03:44:44.138Z,63.17
2019-04-26T03:45:44.520Z,63.27
2019-04-26T03:46:44.905Z,63.27
2019-04-26T03:47:45.808Z,63.67
2019-04-26T03:48:44.757Z,63.67
2019-04-26T03:49:44.275Z,63.27
2019-04-26T03:50:44.865Z,63.57
2019-04-26T03:51:44.893Z,63.98
2019-04-26T03:52:44.092Z,63.67
2019-04-26T03:53:44.569Z,64.07
2019-04-26T03:54:43.061Z,63.87
2019-04-26T03:55:43.701Z,63.67
2019-04-26T03:56:43.573Z,63.87
2019-04-26T03:57:44.877Z,64.28
2019-04-26T03:58:43.626Z,63.67
2019-04-26T03:59:44.101Z,63.75
2019-04-26T04:00:44.998Z,63.75
2019-04-26T04:01:44.320Z,64.15
2019-04-26T04:02:44.763Z,64.28
2019-04-26T04:03:45.164Z,64.25
2019-04-26T04:04:44.797Z,64.45
2019-04-26T04:05:44.270Z,64.04
2019-04-26T04:06:58.080Z,63.75
2019-04-26T04:07:49.394Z,63.44
2019-04-26T04:08:44.687Z,64.25
2019-04-26T04:09:42.928Z,64.28
2019-04-26T04:10:44.107Z,64.15
2019-04-26T04:11:44.333Z,64.15
2019-04-26T04:12:44.423Z,63.84
2019-04-26T04:13:47.941Z,64.65
2019-04-26T04:14:45.060Z,64.76
2019-04-26T04:15:44.708Z,64.65
2019-04-26T04:16:44.615Z,64.25
2019-04-26T04:17:45.356Z,64.25
2019-04-26T04:18:44.172Z,63.95
2019-04-26T04:19:43.893Z,64.65
2019-04-26T04:20:44.376Z,64.35
2019-04-26T04:21:44.459Z,64.65
2019-04-26T04:22:43.972Z,64.86
2019-04-26T04:23:43.525Z,64.25
2019-04-26T04:24:44.609Z,64.15
2019-04-26T04:25:44.133Z,64.73
2019-04-26T04:26:43.433Z,64.96
2019-04-26T04:27:44.030Z,64.96
2019-04-26T04:28:44.068Z,63.92
2019-04-26T04:29:50.012Z,64.42
2019-04-26T04:30:45.432Z,64.22
2019-04-26T04:31:44.168Z,64.12
2019-04-26T04:32:43.988Z,64.09
2019-04-26T04:33:43.636Z,63.78
2019-04-26T04:34:43.997Z,63.68
2019-04-26T04:35:45.340Z,63.08
2019-04-26T04:36:45.898Z,63.15
2019-04-26T04:38:01.793Z,62.74
2019-04-26T04:38:44.685Z,61.40
2019-04-26T04:39:44.317Z,61.47
2019-04-26T04:40:42.743Z,61.07
2019-04-26T04:41:42.987Z,61.17
2019-04-26T04:42:43.569Z,60.64
2019-04-26T04:43:44.362Z,60.74
2019-04-26T04:44:44.388Z,60.64
2019-04-26T04:45:44.016Z,59.50
2019-04-26T04:46:43.865Z,59.90
2019-04-26T04:47:45.171Z,59.80
2019-04-26T04:48:43.346Z,59.70
2019-04-26T04:49:42.986Z,58.67
2019-04-26T04:50:43.390Z,59.57
2019-04-26T04:51:44.197Z,58.97
2019-04-26T04:52:43.207Z,58.44
2019-04-26T04:53:43.407Z,58.11
2019-04-26T04:54:43.271Z,58.21
2019-04-26T04:55:43.467Z,57.60
2019-04-26T04:56:43.514Z,57.57
2019-04-26T04:57:42.363Z,57.15
2019-04-26T04:58:43.580Z,57.28
2019-04-26T04:59:42.331Z,56.31
2019-04-26T05:00:43.048Z,55.61
2019-04-26T05:01:42.834Z,55.21
2019-04-26T05:02:43.503Z,55.81
2019-04-26T05:03:42.360Z,55.51
2019-04-26T05:04:42.733Z,55.08
2019-04-26T05:05:43.482Z,55.48
2019-04-26T05:06:42.707Z,54.38
2019-04-26T05:07:43.849Z,53.75
2019-04-26T05:08:42.902Z,54.33
2019-04-26T05:09:43.892Z,53.20
2019-04-26T05:10:42.212Z,52.77
2019-04-26T05:11:42.201Z,51.37
2019-04-26T05:12:42.223Z,51.44
2019-04-26T05:13:42.219Z,51.46
2019-04-26T05:14:42.164Z,52.07
2019-04-26T05:15:42.145Z,51.34
2019-04-26T05:16:42.141Z,51.44
2019-04-26T05:17:42.139Z,51.62
2019-04-26T05:18:42.118Z,50.42
2019-04-26T05:19:42.136Z,51.24
2019-04-26T05:20:42.090Z,50.54
2019-04-26T05:21:42.080Z,50.42
2019-04-26T05:22:42.079Z,50.26
2019-04-26T05:23:42.085Z,49.22
2019-04-26T05:24:42.062Z,48.99
2019-04-26T05:25:42.069Z,47.99
2019-04-26T05:26:42.022Z,47.17
2019-04-26T05:27:42.017Z,47.65
2019-04-26T05:28:42.015Z,46.23
2019-04-26T05:29:42.018Z,46.73
2019-04-26T05:30:42.020Z,45.98
2019-04-26T05:31:41.990Z,45.36
2019-04-26T05:32:41.969Z,44.74
2019-04-26T05:33:41.955Z,44.23
2019-04-26T05:34:41.967Z,44.15
2019-04-26T05:35:42.324Z,44.24
2019-04-26T05:36:41.935Z,44.12
2019-04-26T05:37:42.045Z,43.03
2019-04-26T05:38:41.923Z,43.11
2019-04-26T05:39:41.913Z,44.12
2019-04-26T05:40:41.894Z,44.05
2019-04-26T05:41:41.912Z,45.47
2019-04-26T05:42:41.885Z,45.36
2019-04-26T05:43:41.893Z,44.76
2019-04-26T05:44:41.857Z,44.37
2019-04-26T05:45:41.853Z,44.96
2019-04-26T05:46:42.710Z,44.45
2019-04-26T05:47:41.875Z,44.35
2019-04-26T05:48:41.815Z,44.32
2019-04-26T05:49:41.806Z,42.69
2019-04-26T05:50:41.795Z,42.17
2019-04-26T05:51:41.827Z,41.24
2019-04-26T05:52:41.864Z,41.24
2019-04-26T05:53:41.733Z,41.47
2019-04-26T05:54:41.733Z,43.33
2019-04-26T05:55:41.722Z,44.87
2019-04-26T05:56:41.730Z,45.06
2019-04-26T05:57:41.698Z,45.71
2019-04-26T05:58:41.713Z,47.25
2019-04-26T05:59:41.669Z,47.77
2019-04-26T06:00:41.660Z,47.27
2019-04-26T06:01:41.653Z,47.17
2019-04-26T06:02:41.647Z,47.45
2019-04-26T06:03:41.649Z,47.55
2019-04-26T06:04:41.610Z,47.47
2019-04-26T06:05:41.692Z,47.47
2019-04-26T06:06:41.599Z,47.35
2019-04-26T06:07:41.587Z,48.07
2019-04-26T06:08:41.614Z,47.72
2019-04-26T06:09:41.605Z,45.68
2019-04-26T06:10:41.548Z,46.28
2019-04-26T06:11:41.538Z,46.08
2019-04-26T06:12:41.559Z,45.34
2019-04-26T06:13:41.530Z,44.72
2019-04-26T06:14:41.520Z,43.21
2019-04-26T06:15:41.500Z,44.94
2019-04-26T06:16:41.497Z,45.17
2019-04-26T06:17:41.481Z,47.53
2019-04-26T06:18:41.481Z,47.22
2019-04-26T06:19:41.475Z,47.13
2019-04-26T06:20:41.452Z,47.42
2019-04-26T06:21:41.434Z,45.90
2019-04-26T06:22:41.413Z,45.47
2019-04-26T06:23:41.405Z,44.84
2019-04-26T06:24:41.412Z,44.82
2019-04-26T06:25:41.393Z,44.28
2019-04-26T06:26:41.397Z,43.37
2019-04-26T06:27:41.375Z,42.17
2019-04-26T06:28:41.356Z,42.94
2019-04-26T06:29:41.351Z,42.15
2019-04-26T06:30:45.691Z,41.74
2019-04-26T06:31:41.330Z,41.61
2019-04-26T06:32:42.389Z,40.80
2019-04-26T06:33:41.302Z,40.90
2019-04-26T06:34:41.294Z,40.48
2019-04-26T06:35:41.302Z,39.77
2019-04-26T06:36:41.283Z,39.53
2019-04-26T06:37:41.271Z,39.43
2019-04-26T06:38:44.072Z,39.20
2019-04-26T06:39:41.231Z,37.70
2019-04-26T06:40:41.968Z,37.28
2019-04-26T06:41:41.224Z,38.94
2019-04-26T06:42:41.199Z,39.53
2019-04-26T06:43:41.184Z,38.54
2019-04-26T06:44:41.178Z,39.43
2019-04-26T06:45:41.167Z,38.72
2019-04-26T06:46:41.194Z,38.53
2019-04-26T06:47:41.162Z,39.29
2019-04-26T06:48:41.143Z,38.51
2019-04-26T06:49:41.148Z,38.88
2019-04-26T06:50:41.105Z,38.07
2019-04-26T06:51:41.108Z,37.46
2019-04-26T06:52:41.138Z,36.54
2019-04-26T06:53:41.091Z,36.63
2019-04-26T06:54:41.078Z,35.55
2019-04-26T06:55:41.061Z,35.35
2019-04-26T06:56:41.046Z,35.93
2019-04-26T06:57:41.061Z,35.22
2019-04-26T06:58:41.038Z,35.28
2019-04-26T06:59:41.022Z,34.06
2019-04-26T07:00:41.019Z,32.84
2019-04-26T07:01:41.006Z,30.91
2019-04-26T07:02:40.984Z,31.19
2019-04-26T07:03:41.001Z,30.39
2019-04-26T07:04:40.980Z,30.42
2019-04-26T07:05:40.962Z,31.98
2019-04-26T07:06:40.954Z,34.38
2019-04-26T07:07:40.954Z,32.98
2019-04-26T07:08:40.939Z,32.28
2019-04-26T07:09:40.908Z,32.54
2019-04-26T07:10:40.913Z,32.45
2019-04-26T07:11:40.901Z,33.38
2019-04-26T07:12:40.894Z,34.31
2019-04-26T07:13:40.915Z,35.75
2019-04-26T07:14:40.852Z,37.07
2019-04-26T07:15:40.851Z,38.29
2019-04-26T07:16:40.827Z,38.11
2019-04-26T07:17:40.824Z,38.92
2019-04-26T07:18:40.823Z,39.65
2019-04-26T07:19:40.828Z,39.06
2019-04-26T07:20:40.806Z,39.97
2019-04-26T07:21:40.793Z,39.77
2019-04-26T07:22:40.767Z,40.44
2019-04-26T07:23:40.752Z,41.17
2019-04-26T07:24:40.787Z,41.20
2019-04-26T07:25:40.790Z,41.71
2019-04-26T07:26:40.732Z,42.01
2019-04-26T07:27:40.715Z,42.11
2019-04-26T07:28:40.706Z,42.51
2019-04-26T07:29:40.706Z,42.11
2019-04-26T07:30:40.712Z,41.14
2019-04-26T07:31:40.677Z,39.04
2019-04-26T07:32:40.669Z,39.10
2019-04-26T07:33:40.657Z,37.48
2019-04-26T07:34:40.632Z,37.38
2019-04-26T07:35:41.317Z,38.82
2019-04-26T07:36:40.638Z,39.95
2019-04-26T07:37:40.611Z,40.07
2019-04-26T07:38:40.633Z,40.20
2019-04-26T07:39:40.612Z,37.16
2019-04-26T07:40:40.574Z,37.36
2019-04-26T07:41:40.610Z,38.27
2019-04-26T07:42:40.570Z,38.17
2019-04-26T07:43:41.259Z,37.64
2019-04-26T07:44:40.541Z,35.07
2019-04-26T07:45:40.543Z,32.92
2019-04-26T07:46:40.536Z,33.64
2019-04-26T07:47:40.503Z,32.76
2019-04-26T07:48:40.494Z,33.26
2019-04-26T07:49:40.485Z,34.05
2019-04-26T07:50:40.469Z,35.41
2019-04-26T07:51:40.490Z,35.53
2019-04-26T07:52:40.464Z,34.82
2019-04-26T07:53:40.443Z,35.94
2019-04-26T07:54:40.436Z,35.89
2019-04-26T07:55:40.427Z,35.41
2019-04-26T07:56:40.414Z,34.92
2019-04-26T07:57:40.422Z,36.42
2019-04-26T07:58:40.397Z,36.12
2019-04-26T07:59:40.374Z,36.34
2019-04-26T08:00:45.033Z,36.54
2019-04-26T08:01:41.376Z,36.71
2019-04-26T08:02:40.346Z,36.14
2019-04-26T08:03:40.351Z,36.79
2019-04-26T08:04:40.332Z,38.40
2019-04-26T08:05:40.326Z,38.72
2019-04-26T08:06:40.304Z,39.02
2019-04-26T08:07:40.305Z,40.50
2019-04-26T08:08:40.273Z,39.91
2019-04-26T08:09:40.260Z,38.72
2019-04-26T08:10:40.264Z,39.71
2019-04-26T08:11:40.253Z,39.23
2019-04-26T08:12:40.259Z,39.53
2019-04-26T08:13:40.223Z,39.75
2019-04-26T08:14:40.223Z,40.05
2019-04-26T08:15:40.212Z,39.06
2019-04-26T08:16:40.204Z,40.23
2019-04-26T08:17:40.215Z,40.33
2019-04-26T08:18:40.171Z,39.73
2019-04-26T08:19:40.159Z,40.11
2019-04-26T08:20:40.149Z,39.81
2019-04-26T08:21:42.525Z,40.31
2019-04-26T08:22:41.200Z,39.42
2019-04-26T08:23:42.181Z,39.51
2019-04-26T08:24:40.120Z,39.79
2019-04-26T08:25:40.109Z,39.89
2019-04-26T08:26:40.075Z,39.79
2019-04-26T08:27:40.109Z,38.67
2019-04-26T08:28:40.155Z,37.68
2019-04-26T08:29:40.064Z,37.87
2019-04-26T08:30:40.616Z,38.13
2019-04-26T08:31:40.027Z,37.43
2019-04-26T08:32:40.013Z,35.77
2019-04-26T08:33:40.407Z,34.66
2019-04-26T08:34:40.031Z,34.54
2019-04-26T08:35:40.001Z,34.11
2019-04-26T08:36:39.984Z,32.81
2019-04-26T08:37:39.975Z,32.02
2019-04-26T08:38:39.958Z,32.30
2019-04-26T08:39:45.711Z,30.83
2019-04-26T08:40:40.952Z,27.64
2019-04-26T08:41:40.213Z,28.12
2019-04-26T08:42:39.921Z,26.18
2019-04-26T08:43:39.915Z,25.47
2019-04-26T08:44:39.908Z,25.78
2019-04-26T08:45:40.550Z,25.09
2019-04-26T08:46:39.886Z,26.55
2019-04-26T08:47:39.877Z,25.25
2019-04-26T08:48:39.861Z,24.32
2019-04-26T08:49:40.079Z,23.12
2019-04-26T08:50:42.211Z,22.23
2019-04-26T08:51:39.813Z,22.45
2019-04-26T08:52:39.809Z,23.36
2019-04-26T08:53:39.810Z,23.36
2019-04-26T08:54:39.821Z,23.65
2019-04-26T08:55:39.786Z,23.24
2019-04-26T08:56:39.797Z,22.50
2019-04-26T08:57:39.774Z,21.15
2019-04-26T08:58:39.747Z,21.85
2019-04-26T08:59:39.768Z,22.06
2019-04-26T09:00:39.742Z,22.47
2019-04-26T09:01:41.990Z,24.17
2019-04-26T09:02:39.710Z,24.50
2019-04-26T09:03:39.709Z,26.01
2019-04-26T09:04:39.712Z,26.13
2019-04-26T09:05:39.699Z,27.95
2019-04-26T09:06:39.688Z,29.56
2019-04-26T09:07:39.679Z,29.97
2019-04-26T09:08:43.477Z,30.91
2019-04-26T09:09:40.655Z,31.84
2019-04-26T09:10:43.321Z,32.45
2019-04-26T09:11:39.625Z,32.86
2019-04-26T09:12:39.613Z,32.76
2019-04-26T09:13:39.611Z,32.46
2019-04-26T09:14:39.598Z,33.65
2019-04-26T09:15:40.709Z,33.87
2019-04-26T09:16:49.851Z,33.51
2019-04-26T09:17:40.582Z,33.59
2019-04-26T09:18:43.634Z,31.53
2019-04-26T09:19:40.555Z,30.44
2019-04-26T09:20:42.894Z,28.23
2019-04-26T09:21:39.565Z,27.00
2019-04-26T09:22:39.527Z,26.36
2019-04-26T09:23:40.445Z,24.16
2019-04-26T09:24:39.509Z,22.28
2019-04-26T09:25:39.660Z,22.34
2019-04-26T09:26:42.359Z,23.03
2019-04-26T09:27:40.492Z,22.88
2019-04-26T09:28:39.469Z,23.27
2019-04-26T09:29:39.453Z,22.90
2019-04-26T09:30:42.389Z,24.76
2019-04-26T09:31:39.421Z,24.68
2019-04-26T09:32:39.439Z,25.09
2019-04-26T09:33:39.413Z,26.29
2019-04-26T09:34:41.247Z,26.89
2019-04-26T09:35:39.414Z,26.90
2019-04-26T09:36:39.372Z,26.70
2019-04-26T09:37:39.441Z,27.20
2019-04-26T09:38:39.361Z,26.81
2019-04-26T09:39:41.685Z,27.20
2019-04-26T09:40:39.346Z,27.42
2019-04-26T09:41:39.333Z,28.43
2019-04-26T09:42:40.876Z,29.04
2019-04-26T09:43:39.328Z,29.06
2019-04-26T09:44:41.449Z,29.36
2019-04-26T09:45:39.282Z,30.08
2019-04-26T09:46:39.290Z,30.19
2019-04-26T09:47:39.269Z,30.29
2019-04-26T09:48:39.270Z,29.08
2019-04-26T09:49:41.258Z,29.97
2019-04-26T09:50:39.237Z,29.08
2019-04-26T09:51:40.439Z,30.16
2019-04-26T09:52:39.229Z,29.68
2019-04-26T09:53:39.568Z,30.16
2019-04-26T09:54:39.190Z,30.87
2019-04-26T09:55:39.192Z,28.86
2019-04-26T09:56:39.232Z,29.64
2019-04-26T09:57:39.164Z,29.22
2019-04-26T09:58:39.199Z,28.25
2019-04-26T09:59:40.014Z,28.15
2019-04-26T10:00:39.143Z,28.54
2019-04-26T10:01:39.122Z,29.16
2019-04-26T10:02:39.110Z,28.86
2019-04-26T10:03:39.203Z,29.64
2019-04-26T10:04:39.127Z,29.75
2019-04-26T10:05:39.091Z,30.37
2019-04-26T10:06:39.065Z,31.09
2019-04-26T10:07:39.068Z,31.60
2019-04-26T10:08:39.049Z,31.71
2019-04-26T10:09:39.038Z,31.38
2019-04-26T10:10:39.057Z,30.68
2019-04-26T10:11:39.543Z,29.55
2019-04-26T10:12:39.011Z,27.01
2019-04-26T10:13:39.008Z,26.89
2019-04-26T10:14:39.008Z,25.68
2019-04-26T10:15:39.220Z,24.27
2019-04-26T10:16:42.192Z,23.55
2019-04-26T10:17:38.953Z,23.05
2019-04-26T10:18:38.968Z,22.44
2019-04-26T10:19:38.948Z,21.75
2019-04-26T10:20:38.958Z,20.98
2019-04-26T10:21:38.920Z,20.81
2019-04-26T10:22:38.913Z,21.10
2019-04-26T10:23:38.922Z,20.93
2019-04-26T10:24:38.923Z,21.61
2019-04-26T10:25:38.889Z,21.11
2019-04-26T10:26:38.866Z,21.38
2019-04-26T10:27:40.867Z,20.40
2019-04-26T10:28:38.843Z,20.31
2019-04-26T10:29:38.852Z,20.09
2019-04-26T10:30:42.364Z,20.19
2019-04-26T10:31:38.837Z,20.95
2019-04-26T10:32:38.832Z,20.06
2019-04-26T10:33:38.954Z,20.25
2019-04-26T10:34:42.639Z,19.76
2019-04-26T10:35:39.788Z,19.27
2019-04-26T10:36:38.809Z,19.26
2019-04-26T10:37:39.845Z,18.77
2019-04-26T10:38:38.796Z,19.34
2019-04-26T10:39:38.787Z,19.23
2019-04-26T10:40:38.747Z,18.95
2019-04-26T10:41:38.747Z,18.85
2019-04-26T10:42:38.734Z,18.48
2019-04-26T10:43:38.724Z,18.84
2019-04-26T10:44:39.921Z,19.03
2019-04-26T10:45:38.738Z,18.84
2019-04-26T10:46:38.930Z,18.35
2019-04-26T10:47:39.889Z,18.93
2019-04-26T10:48:41.230Z,18.44
2019-04-26T10:49:39.532Z,18.14
2019-04-26T10:50:39.476Z,17.76
2019-04-26T10:51:41.842Z,18.33
2019-04-26T10:52:39.732Z,17.85
2019-04-26T10:53:39.557Z,17.57
2019-04-26T10:54:41.038Z,17.08
2019-04-26T10:55:39.294Z,18.71
2019-04-26T10:56:39.480Z,19.02
2019-04-26T10:57:39.551Z,18.53
2019-04-26T10:58:39.467Z,17.94
2019-04-26T10:59:39.930Z,18.33
2019-04-26T11:00:40.402Z,18.14
2019-04-26T11:01:39.357Z,18.53
2019-04-26T11:02:39.519Z,18.15
2019-04-26T11:03:39.451Z,18.63
2019-04-26T11:04:41.458Z,18.16
2019-04-26T11:05:39.183Z,18.55
2019-04-26T11:06:39.211Z,18.46
2019-04-26T11:07:39.531Z,18.85
2019-04-26T11:08:38.996Z,19.24
2019-04-26T11:09:39.150Z,19.15
2019-04-26T11:10:47.974Z,18.38
2019-04-26T11:11:39.949Z,19.08
2019-04-26T11:12:39.691Z,19.37
2019-04-26T11:13:39.345Z,20.23
2019-04-26T11:14:39.319Z,19.27
2019-04-26T11:15:39.095Z,19.26
2019-04-26T11:16:41.112Z,18.59
2019-04-26T11:17:39.399Z,18.97
2019-04-26T11:18:39.418Z,19.27
2019-04-26T11:19:39.418Z,18.53
2019-04-26T11:20:41.512Z,20.01
2019-04-26T11:21:40.111Z,20.59
2019-04-26T11:22:39.322Z,20.23
2019-04-26T11:23:41.027Z,20.21
2019-04-26T11:24:40.116Z,20.29
2019-04-26T11:25:39.245Z,19.89
2019-04-26T11:26:38.993Z,19.32
2019-04-26T11:27:40.226Z,19.30
2019-04-26T11:28:41.873Z,19.10
2019-04-26T11:29:39.354Z,19.02
2019-04-26T11:30:39.126Z,18.64
2019-04-26T11:31:38.787Z,19.52
2019-04-26T11:32:39.071Z,19.80
2019-04-26T11:33:44.637Z,19.79
2019-04-26T11:34:42.766Z,18.71
2019-04-26T11:35:38.899Z,18.88
2019-04-26T11:36:41.810Z,18.68
2019-04-26T11:37:39.104Z,18.41
2019-04-26T11:38:39.269Z,18.80
2019-04-26T11:39:40.450Z,18.70
2019-04-26T11:40:39.142Z,18.72
2019-04-26T11:41:39.162Z,18.93
2019-04-26T11:42:41.850Z,19.82
2019-04-26T11:43:39.979Z,19.81
2019-04-26T11:44:39.335Z,19.70
2019-04-26T11:45:38.959Z,19.51
2019-04-26T11:46:44.490Z,20.08
2019-04-26T11:47:54.276Z,19.00
2019-04-26T11:48:39.977Z,19.18
2019-04-26T11:49:41.559Z,18.50
2019-04-26T11:50:38.752Z,18.49
2019-04-26T11:51:38.704Z,18.70
2019-04-26T11:52:38.883Z,19.20
2019-04-26T11:53:40.646Z,18.44
2019-04-26T11:54:39.825Z,18.94
2019-04-26T11:55:38.971Z,20.21
2019-04-26T11:56:38.863Z,19.82
2019-04-26T11:57:40.023Z,20.13
2019-04-26T11:58:38.087Z,20.06
2019-04-26T11:59:38.099Z,21.04
2019-04-26T12:00:38.058Z,21.94
2019-04-26T12:01:40.440Z,22.53
2019-04-26T12:02:38.042Z,22.64
2019-04-26T12:03:38.061Z,22.25
2019-04-26T12:04:38.066Z,22.85
2019-04-26T12:05:38.015Z,23.04
2019-04-26T12:06:38.003Z,23.05
2019-04-26T12:07:37.984Z,22.55
2019-04-26T12:08:37.982Z,22.47
2019-04-26T12:09:37.975Z,22.97
2019-04-26T12:10:40.307Z,23.66
2019-04-26T12:11:48.924Z,23.19
2019-04-26T12:12:38.947Z,23.97
2019-04-26T12:13:37.930Z,24.49
2019-04-26T12:14:37.935Z,25.39
2019-04-26T12:15:39.072Z,25.60
2019-04-26T12:16:47.993Z,26.90
2019-04-26T12:17:38.904Z,27.11
2019-04-26T12:18:40.278Z,27.81
2019-04-26T12:19:38.873Z,28.31
2019-04-26T12:20:37.866Z,27.73
2019-04-26T12:21:37.875Z,28.44
2019-04-26T12:22:39.420Z,28.54
2019-04-26T12:23:38.836Z,28.74
2019-04-26T12:24:37.834Z,28.65
2019-04-26T12:25:38.765Z,28.25
2019-04-26T12:26:43.130Z,28.54
2019-04-26T12:27:38.871Z,28.54
2019-04-26T12:28:40.099Z,28.25
2019-04-26T12:29:37.780Z,28.22
2019-04-26T12:30:37.779Z,27.33
2019-04-26T12:31:37.758Z,27.33
2019-04-26T12:32:37.764Z,27.03
2019-04-26T12:33:39.194Z,26.67
2019-04-26T12:34:38.730Z,28.15
2019-04-26T12:35:37.727Z,27.97
2019-04-26T12:36:37.711Z,27.77
2019-04-26T12:37:37.733Z,28.85
2019-04-26T12:38:37.692Z,28.68
2019-04-26T12:39:38.276Z,29.27
2019-04-26T12:40:37.665Z,29.07
2019-04-26T12:41:40.691Z,28.67
2019-04-26T12:42:37.647Z,28.37
2019-04-26T12:43:37.657Z,28.17
2019-04-26T12:44:41.050Z,27.59
2019-04-26T12:45:37.614Z,28.47
2019-04-26T12:46:37.606Z,28.58
2019-04-26T12:47:38.649Z,28.20
2019-04-26T12:48:37.604Z,28.69
2019-04-26T12:49:37.579Z,28.31
2019-04-26T12:50:37.859Z,28.51
2019-04-26T12:51:38.378Z,28.61
2019-04-26T12:52:37.649Z,29.51